createdAt,value
2022-11-28T00:00:09.833Z,46.60
2022-11-28T00:02:43.760Z,48.75
2022-11-28T00:05:15.100Z,55.80
2022-11-28T00:07:46.333Z,61.40
2022-11-28T00:10:17.027Z,75.03
2022-11-28T00:12:47.595Z,75.53
2022-11-28T00:15:18.124Z,79.55
2022-11-28T00:17:48.968Z,76.15
2022-11-28T00:20:19.836Z,76.05
2022-11-28T00:22:51.019Z,64.43
2022-11-28T00:25:21.211Z,55.63
2022-11-28T00:27:51.944Z,51.45
2022-11-28T00:30:22.644Z,46.17
2022-11-28T00:32:53.018Z,39.88
2022-11-28T00:35:23.663Z,39.25
2022-11-28T00:37:53.740Z,35.22
2022-11-28T00:40:24.040Z,32.35
2022-11-28T00:42:54.509Z,37.13
2022-11-28T00:45:26.318Z,37.90
2022-11-28T00:47:57.067Z,33.03
2022-11-28T00:50:28.081Z,32.92
2022-11-28T00:52:58.941Z,35.58
2022-11-28T00:55:29.370Z,43.33
2022-11-28T00:57:59.968Z,42.85
2022-11-28T01:00:30.454Z,35.40
2022-11-28T01:03:01.466Z,31.60
2022-11-28T01:05:31.980Z,26.77
2022-11-28T01:08:02.711Z,32.05
2022-11-28T01:10:33.362Z,30.42
2022-11-28T01:13:03.487Z,29.60
2022-11-28T01:15:33.542Z,27.15
2022-11-28T01:18:04.312Z,41.15
2022-11-28T01:20:35.205Z,26.13
2022-11-28T01:23:06.474Z,32.95
2022-11-28T01:25:37.723Z,26.67
2022-11-28T01:28:08.422Z,25.80
2022-11-28T01:30:38.931Z,28.85
2022-11-28T01:33:09.407Z,24.35
2022-11-28T01:35:40.354Z,24.48
2022-11-28T01:38:11.437Z,19.80
2022-11-28T01:40:48.201Z,19.02
2022-11-28T01:43:18.931Z,16.10
2022-11-28T01:45:49.520Z,16.25
2022-11-28T01:48:31.237Z,20.65
2022-11-28T01:51:04.938Z,15.55
2022-11-28T01:53:39.984Z,12.65
2022-11-28T01:56:19.955Z,12.73
2022-11-28T01:58:57.379Z,12.18
2022-11-28T02:01:28.571Z,11.56
2022-11-28T02:04:01.520Z,14.75
2022-11-28T02:06:32.867Z,14.43
2022-11-28T02:09:04.087Z,10.27
2022-11-28T02:11:57.080Z,9.65
2022-11-28T02:14:51.726Z,11.35
2022-11-28T02:18:01.305Z,12.73
2022-11-28T02:20:57.193Z,10.35
2022-11-28T02:23:52.501Z,11.68
2022-11-28T02:26:50.266Z,10.48
2022-11-28T02:29:59.823Z,9.27
2022-11-28T02:32:57.055Z,12.23
2022-11-28T02:36:06.984Z,16.50
2022-11-28T02:39:00.874Z,10.65
2022-11-28T02:41:44.389Z,9.52
2022-11-28T02:44:25.098Z,12.15
2022-11-28T02:47:05.192Z,8.95
2022-11-28T02:49:53.364Z,10.05
2022-11-28T02:52:30.140Z,7.65
2022-11-28T02:55:02.629Z,10.52
2022-11-28T02:57:42.448Z,7.32
2022-11-28T03:00:33.697Z,12.27
2022-11-28T03:03:30.555Z,10.45
2022-11-28T03:06:27.795Z,8.73
2022-11-28T03:09:28.253Z,11.52
2022-11-28T03:12:23.171Z,7.25
2022-11-28T03:15:03.813Z,10.60
2022-11-28T03:18:11.227Z,10.13
2022-11-28T03:20:57.226Z,10.15
2022-11-28T03:23:50.631Z,10.73
2022-11-28T03:27:00.436Z,9.25
2022-11-28T03:29:55.711Z,8.52
2022-11-28T03:32:29.433Z,9.98
2022-11-28T03:35:20.070Z,10.05
2022-11-28T03:38:00.021Z,6.90
2022-11-28T03:40:37.993Z,7.28
2022-11-28T03:43:15.653Z,7.93
2022-11-28T03:45:54.828Z,8.40
2022-11-28T03:48:33.405Z,18.30
2022-11-28T03:51:17.349Z,21.15
2022-11-28T03:54:19.030Z,5.30
2022-11-28T03:57:17.271Z,8.52
2022-11-28T03:59:52.296Z,8.50
2022-11-28T04:02:32.860Z,7.00
2022-11-28T04:05:26.015Z,7.72
2022-11-28T04:08:04.954Z,9.35
2022-11-28T04:10:43.664Z,7.80
2022-11-28T04:13:45.582Z,9.30
2022-11-28T04:16:39.954Z,6.88
2022-11-28T04:19:30.071Z,8.15
2022-11-28T04:22:33.750Z,6.47
2022-11-28T04:25:09.731Z,6.50
2022-11-28T04:27:50.264Z,6.25
2022-11-28T04:30:21.513Z,9.13
2022-11-28T04:32:59.402Z,6.82
2022-11-28T04:35:39.358Z,7.13
2022-11-28T04:38:12.574Z,5.72
2022-11-28T04:40:57.158Z,5.70
2022-11-28T04:43:32.864Z,6.72
2022-11-28T04:46:09.550Z,5.60
2022-11-28T04:48:40.769Z,7.00
2022-11-28T04:51:50.150Z,6.78
2022-11-28T04:54:38.634Z,6.40
2022-11-28T04:57:42.205Z,7.78
2022-11-28T05:00:17.080Z,14.30
2022-11-28T05:02:51.893Z,8.93
2022-11-28T05:05:26.116Z,12.73
2022-11-28T05:07:56.812Z,6.85
2022-11-28T05:10:28.052Z,9.63
2022-11-28T05:12:59.152Z,9.00
2022-11-28T05:15:29.381Z,7.75
2022-11-28T05:17:59.928Z,8.57
2022-11-28T05:20:31.299Z,6.82
2022-11-28T05:23:01.765Z,6.90
2022-11-28T05:25:32.668Z,6.72
2022-11-28T05:28:03.823Z,7.38
2022-11-28T05:30:34.289Z,7.82
2022-11-28T05:33:05.259Z,6.50
2022-11-28T05:35:36.203Z,6.35
2022-11-28T05:38:12.183Z,6.10
2022-11-28T05:40:45.921Z,8.05
2022-11-28T05:43:16.732Z,6.03
2022-11-28T05:45:47.869Z,7.97
2022-11-28T05:48:18.115Z,6.00
2022-11-28T05:50:49.047Z,6.28
2022-11-28T05:53:21.524Z,6.50
2022-11-28T05:55:52.288Z,6.30
2022-11-28T05:58:22.857Z,6.28
2022-11-28T06:00:53.458Z,7.60
2022-11-28T06:03:24.621Z,6.22
2022-11-28T06:05:54.870Z,6.65
2022-11-28T06:08:25.033Z,6.53
2022-11-28T06:11:02.737Z,6.60
2022-11-28T06:13:32.883Z,6.28
2022-11-28T06:16:03.878Z,6.93
2022-11-28T06:18:34.131Z,6.95
2022-11-28T06:21:06.212Z,6.07
2022-11-28T06:23:38.069Z,5.72
2022-11-28T06:26:11.279Z,7.38
2022-11-28T06:28:42.156Z,6.10
2022-11-28T06:31:32.121Z,7.07
2022-11-28T06:34:02.495Z,5.80
2022-11-28T06:36:33.299Z,5.40
2022-11-28T06:39:03.465Z,5.47
2022-11-28T06:41:34.422Z,5.90
2022-11-28T06:44:04.884Z,5.65
2022-11-28T06:46:35.317Z,5.05
2022-11-28T06:49:05.717Z,6.43
2022-11-28T06:51:36.196Z,6.82
2022-11-28T06:54:08.179Z,7.05
2022-11-28T06:56:38.213Z,9.73
2022-11-28T06:59:09.018Z,8.00
2022-11-28T07:01:39.867Z,7.07
2022-11-28T07:04:11.995Z,15.95
2022-11-28T07:06:42.795Z,8.25
2022-11-28T07:09:13.128Z,7.28
2022-11-28T07:11:44.276Z,7.38
2022-11-28T07:14:15.165Z,7.00
2022-11-28T07:16:45.895Z,7.80
2022-11-28T07:19:16.680Z,6.70
2022-11-28T07:21:47.523Z,6.70
2022-11-28T07:24:19.181Z,6.55
2022-11-28T07:26:49.882Z,8.60
2022-11-28T07:29:21.554Z,6.15
2022-11-28T07:31:53.262Z,6.00
2022-11-28T07:34:23.885Z,6.63
2022-11-28T07:36:53.992Z,6.97
2022-11-28T07:39:24.100Z,6.97
2022-11-28T07:41:54.599Z,7.85
2022-11-28T07:44:25.679Z,6.82
2022-11-28T07:46:56.154Z,6.63
2022-11-28T07:49:28.006Z,6.28
2022-11-28T07:51:59.023Z,9.63
2022-11-28T07:54:29.553Z,6.72
2022-11-28T07:57:15.130Z,6.05
2022-11-28T07:59:46.058Z,6.40
2022-11-28T08:02:17.338Z,7.10
2022-11-28T08:04:52.719Z,8.98
2022-11-28T08:07:26.143Z,6.30
2022-11-28T08:09:56.625Z,6.50
2022-11-28T08:12:27.472Z,5.88
2022-11-28T08:14:58.072Z,6.43
2022-11-28T08:17:28.585Z,7.53
2022-11-28T08:19:59.689Z,6.00
2022-11-28T08:22:30.730Z,5.70
2022-11-28T08:25:01.665Z,6.53
2022-11-28T08:27:33.994Z,7.22
2022-11-28T08:30:04.895Z,6.20
2022-11-28T08:32:35.423Z,8.18
2022-11-28T08:35:06.232Z,6.78
2022-11-28T08:37:36.996Z,7.75
2022-11-28T08:40:08.920Z,6.50
2022-11-28T08:42:39.825Z,6.55
2022-11-28T08:45:12.651Z,7.97
2022-11-28T08:47:44.208Z,6.78
2022-11-28T08:50:14.992Z,6.28
2022-11-28T08:52:46.175Z,6.82
2022-11-28T08:55:19.028Z,7.10
2022-11-28T08:57:51.502Z,6.80
2022-11-28T09:00:22.725Z,6.00
2022-11-28T09:02:53.688Z,7.15
2022-11-28T09:05:24.193Z,6.28
2022-11-28T09:07:58.054Z,6.10
2022-11-28T09:10:28.896Z,6.82
2022-11-28T09:12:59.200Z,7.03
2022-11-28T09:15:29.542Z,6.22
2022-11-28T09:18:00.232Z,7.35
2022-11-28T09:20:30.306Z,7.43
2022-11-28T09:23:00.723Z,8.98
2022-11-28T09:25:31.360Z,6.13
2022-11-28T09:28:02.841Z,6.38
2022-11-28T09:30:33.321Z,6.57
2022-11-28T09:33:03.845Z,7.85
2022-11-28T09:35:35.164Z,8.68
2022-11-28T09:38:05.606Z,8.50
2022-11-28T09:40:46.289Z,8.10
2022-11-28T09:43:33.102Z,8.35
2022-11-28T09:46:08.023Z,9.07
2022-11-28T09:48:47.678Z,8.95
2022-11-28T09:51:32.698Z,9.50
2022-11-28T09:54:18.768Z,12.73
2022-11-28T09:56:50.893Z,14.32
2022-11-28T09:59:30.757Z,10.55
2022-11-28T10:02:38.236Z,9.48
2022-11-28T10:05:28.928Z,9.00
2022-11-28T10:08:38.446Z,22.60
2022-11-28T10:11:48.183Z,17.83
2022-11-28T10:14:45.073Z,11.45
2022-11-28T10:17:34.727Z,14.30
2022-11-28T10:20:13.752Z,17.95
2022-11-28T10:23:07.144Z,19.10
2022-11-28T10:25:51.652Z,22.10
2022-11-28T10:28:46.197Z,24.20
2022-11-28T10:31:28.858Z,16.75
2022-11-28T10:34:19.085Z,35.17
2022-11-28T10:37:14.390Z,29.98
2022-11-28T10:39:47.657Z,36.22
2022-11-28T10:42:41.628Z,157.68
2022-11-28T10:45:40.857Z,172.30
2022-11-28T10:48:40.419Z,64.38
2022-11-28T10:51:45.289Z,67.47
2022-11-28T10:54:45.769Z,63.97
2022-11-28T10:57:48.586Z,50.40
2022-11-28T11:00:21.390Z,55.20
2022-11-28T11:02:56.357Z,51.47
2022-11-28T11:05:37.960Z,90.65
2022-11-28T11:08:29.077Z,82.43
2022-11-28T11:11:20.718Z,76.35
2022-11-28T11:14:11.563Z,59.38
2022-11-28T11:17:01.880Z,57.10
2022-11-28T11:19:35.612Z,47.30
2022-11-28T11:22:30.652Z,52.35
2022-11-28T11:25:17.318Z,48.88
2022-11-28T11:27:54.002Z,44.28
2022-11-28T11:30:47.514Z,38.38
2022-11-28T11:33:20.241Z,22.60
2022-11-28T11:35:52.151Z,19.38
2022-11-28T11:38:37.452Z,22.17
2022-11-28T11:41:31.127Z,26.00
2022-11-28T11:44:27.579Z,63.92
2022-11-28T11:47:08.992Z,65.78
2022-11-28T11:49:42.925Z,57.95
2022-11-28T11:52:31.943Z,44.20
2022-11-28T11:55:21.177Z,40.78
2022-11-28T11:57:55.867Z,42.47
2022-11-28T12:00:43.346Z,47.05
2022-11-28T12:03:44.116Z,219.30
2022-11-28T12:06:29.169Z,258.10
2022-11-28T12:09:38.142Z,234.38
2022-11-28T12:12:23.721Z,193.68
2022-11-28T12:14:54.771Z,437.50
2022-11-28T12:17:58.582Z,417.02
2022-11-28T12:20:46.603Z,220.52
2022-11-28T12:23:56.214Z,198.77
2022-11-28T12:26:44.858Z,105.28
2022-11-28T12:29:43.537Z,94.00
2022-11-28T12:32:44.805Z,85.25
2022-11-28T12:35:40.567Z,89.57
2022-11-28T12:38:43.164Z,87.68
2022-11-28T12:41:52.505Z,50.83
2022-11-28T12:45:02.072Z,56.28
2022-11-28T12:48:11.358Z,48.25
2022-11-28T12:51:02.254Z,44.80
2022-11-28T12:54:11.551Z,51.05
2022-11-28T12:57:11.659Z,54.92
2022-11-28T13:00:09.714Z,51.75
2022-11-28T13:03:16.785Z,65.93
2022-11-28T13:06:14.897Z,55.70
2022-11-28T13:09:24.145Z,51.63
2022-11-28T13:12:33.546Z,47.22
2022-11-28T13:15:27.664Z,51.80
2022-11-28T13:18:16.941Z,43.60
2022-11-28T13:21:26.337Z,50.35
2022-11-28T13:24:35.911Z,58.33
2022-11-28T13:27:38.873Z,53.47
2022-11-28T13:30:30.656Z,56.78
2022-11-28T13:33:35.290Z,71.55
2022-11-28T13:36:09.660Z,63.47
2022-11-28T13:39:13.054Z,62.28
2022-11-28T13:42:28.388Z,53.55
2022-11-28T13:45:11.689Z,59.78
2022-11-28T13:47:43.697Z,52.03
2022-11-28T13:50:35.573Z,48.70
2022-11-28T13:53:25.832Z,48.30
2022-11-28T13:56:27.959Z,55.67
2022-11-28T13:59:05.005Z,54.65
2022-11-28T14:02:02.333Z,63.45
2022-11-28T14:04:35.586Z,64.60
2022-11-28T14:07:14.814Z,53.83
2022-11-28T14:10:26.029Z,52.00
2022-11-28T14:13:29.781Z,59.83
2022-11-28T14:16:33.318Z,59.50
2022-11-28T14:19:45.635Z,52.00
2022-11-28T14:22:55.694Z,50.95
2022-11-28T14:25:36.838Z,139.18
2022-11-28T14:28:38.268Z,230.32
2022-11-28T14:31:40.484Z,56.17
2022-11-28T14:34:42.490Z,50.20
2022-11-28T14:37:38.167Z,54.10
2022-11-28T14:40:47.386Z,45.95
2022-11-28T14:43:32.978Z,53.28
2022-11-28T14:46:25.333Z,58.17
2022-11-28T14:49:19.413Z,76.15
2022-11-28T14:52:37.187Z,115.07
2022-11-28T14:55:04.559Z,107.47
2022-11-28T14:57:37.879Z,83.53
2022-11-28T15:00:18.148Z,78.07
2022-11-28T15:03:28.948Z,89.32
2022-11-28T15:06:22.988Z,82.85
2022-11-28T15:09:19.971Z,78.72
2022-11-28T15:12:26.246Z,69.15
2022-11-28T15:14:59.798Z,66.75
2022-11-28T15:17:36.167Z,82.13
2022-11-28T15:20:19.176Z,74.88
2022-11-28T15:22:49.821Z,65.90
2022-11-28T15:25:22.833Z,71.47
2022-11-28T15:27:55.650Z,82.18
2022-11-28T15:30:28.187Z,97.82
2022-11-28T15:33:03.507Z,358.45
2022-11-28T15:35:35.021Z,329.50
2022-11-28T15:38:07.218Z,280.17
2022-11-28T15:40:40.096Z,191.30
2022-11-28T15:43:15.407Z,127.82
2022-11-28T15:45:50.071Z,107.95
2022-11-28T15:48:49.087Z,77.45
2022-11-28T15:51:39.035Z,55.28
2022-11-28T15:54:42.619Z,52.22
2022-11-28T15:57:28.646Z,45.30
2022-11-28T15:59:59.755Z,94.05
2022-11-28T16:02:37.072Z,61.08
2022-11-28T16:05:18.028Z,82.38
2022-11-28T16:07:49.179Z,57.72
2022-11-28T16:10:34.581Z,49.15
2022-11-28T16:13:14.571Z,48.03
2022-11-28T16:15:50.668Z,65.35
2022-11-28T16:18:22.138Z,69.68
2022-11-28T16:20:52.908Z,63.58
2022-11-28T16:23:34.528Z,59.88
2022-11-28T16:26:27.266Z,66.20
2022-11-28T16:29:17.479Z,49.88
2022-11-28T16:31:51.147Z,41.72
2022-11-28T16:34:48.602Z,43.38
2022-11-28T16:37:26.272Z,38.17
2022-11-28T16:40:29.655Z,34.72
2022-11-28T16:43:01.167Z,35.25
2022-11-28T16:45:35.416Z,31.92
2022-11-28T16:48:19.297Z,36.83
2022-11-28T16:51:28.828Z,28.83
2022-11-28T16:54:01.438Z,31.23
2022-11-28T16:56:48.189Z,25.92
2022-11-28T16:59:22.728Z,26.38
2022-11-28T17:01:56.750Z,33.63
2022-11-28T17:04:32.155Z,26.20
2022-11-28T17:07:07.232Z,25.48
2022-11-28T17:09:38.305Z,30.65
2022-11-28T17:12:40.447Z,26.00
2022-11-28T17:15:18.148Z,27.38
2022-11-28T17:17:49.653Z,25.75
2022-11-28T17:20:19.874Z,24.88
2022-11-28T17:22:52.633Z,29.10
2022-11-28T17:25:23.665Z,24.80
2022-11-28T17:27:54.565Z,25.70
2022-11-28T17:30:24.524Z,25.48
2022-11-28T17:32:54.737Z,26.08
2022-11-28T17:35:26.636Z,24.40
2022-11-28T17:37:56.956Z,23.50
2022-11-28T17:40:38.460Z,26.13
2022-11-28T17:43:09.494Z,24.52
2022-11-28T17:45:41.565Z,26.98
2022-11-28T17:48:15.319Z,22.40
2022-11-28T17:50:47.831Z,28.35
2022-11-28T17:53:21.495Z,21.70
2022-11-28T17:56:01.029Z,23.25
2022-11-28T17:58:32.180Z,21.80
2022-11-28T18:01:03.377Z,22.70
2022-11-28T18:03:33.592Z,20.40
2022-11-28T18:06:06.818Z,23.17
2022-11-28T18:08:37.194Z,21.83
2022-11-28T18:11:10.412Z,21.70
2022-11-28T18:13:43.922Z,22.63
2022-11-28T18:16:16.464Z,19.10
2022-11-28T18:18:47.724Z,26.00
2022-11-28T18:21:18.749Z,22.08
2022-11-28T18:23:52.118Z,21.23
2022-11-28T18:26:26.673Z,17.15
2022-11-28T18:28:57.767Z,18.35
2022-11-28T18:31:31.451Z,19.05
2022-11-28T18:34:05.864Z,18.10
2022-11-28T18:36:39.099Z,19.67
2022-11-28T18:39:16.638Z,18.10
2022-11-28T18:41:47.644Z,19.70
2022-11-28T18:44:18.283Z,23.58
2022-11-28T18:46:49.040Z,17.42
2022-11-28T18:49:21.176Z,22.10
2022-11-28T18:51:52.182Z,22.50
2022-11-28T18:54:23.327Z,20.67
2022-11-28T18:56:55.579Z,19.20
2022-11-28T18:59:26.505Z,19.63
2022-11-28T19:01:56.689Z,21.90
2022-11-28T19:04:27.452Z,23.42
2022-11-28T19:06:59.357Z,22.83
2022-11-28T19:09:30.550Z,22.08
2022-11-28T19:12:02.049Z,20.42
2022-11-28T19:14:32.818Z,21.70
2022-11-28T19:17:03.960Z,20.10
2022-11-28T19:19:34.512Z,20.73
2022-11-28T19:22:06.120Z,18.83
2022-11-28T19:24:37.226Z,20.27
2022-11-28T19:27:12.490Z,20.40
2022-11-28T19:29:45.582Z,21.50
2022-11-28T19:32:18.581Z,19.48
2022-11-28T19:34:53.712Z,18.73
2022-11-28T19:37:24.932Z,19.77
2022-11-28T19:39:58.576Z,19.45
2022-11-28T19:42:32.544Z,19.83
2022-11-28T19:45:02.989Z,20.83
2022-11-28T19:47:33.590Z,19.85
2022-11-28T19:50:04.178Z,19.00
2022-11-28T19:52:35.062Z,18.08
2022-11-28T19:55:05.516Z,18.65
2022-11-28T19:57:40.227Z,20.42
2022-11-28T20:00:11.676Z,21.65
2022-11-28T20:02:44.719Z,20.85
2022-11-28T20:05:15.637Z,19.77
2022-11-28T20:07:46.623Z,21.92
2022-11-28T20:10:17.511Z,21.17
2022-11-28T20:12:48.238Z,21.00
2022-11-28T20:15:19.156Z,22.38
2022-11-28T20:17:50.741Z,22.23
2022-11-28T20:20:21.360Z,23.30
2022-11-28T20:22:51.510Z,21.40
2022-11-28T20:25:22.586Z,20.77
2022-11-28T20:27:54.392Z,21.17
2022-11-28T20:30:25.544Z,21.05
2022-11-28T20:32:56.940Z,20.92
2022-11-28T20:35:28.902Z,22.05
2022-11-28T20:37:59.948Z,19.42
2022-11-28T20:40:30.339Z,19.10
2022-11-28T20:43:00.871Z,21.70
2022-11-28T20:45:31.645Z,20.35
2022-11-28T20:48:03.305Z,21.77
2022-11-28T20:50:33.805Z,21.92
2022-11-28T20:53:04.777Z,19.15
2022-11-28T20:55:34.921Z,18.45
2022-11-28T20:58:05.096Z,19.42
2022-11-28T21:00:35.586Z,21.48
2022-11-28T21:03:06.768Z,23.50
2022-11-28T21:05:40.387Z,20.77
2022-11-28T21:08:11.261Z,24.48
2022-11-28T21:10:42.173Z,22.67
2022-11-28T21:13:12.473Z,20.27
2022-11-28T21:15:50.155Z,22.30
2022-11-28T21:18:20.362Z,23.88
2022-11-28T21:20:50.510Z,26.15
2022-11-28T21:23:20.575Z,25.40
2022-11-28T21:25:51.310Z,29.23
2022-11-28T21:28:24.448Z,27.65
2022-11-28T21:30:54.598Z,29.13
2022-11-28T21:33:24.967Z,28.48
2022-11-28T21:36:01.153Z,26.15
2022-11-28T21:38:32.396Z,28.20
2022-11-28T21:41:03.178Z,29.90
2022-11-28T21:43:34.876Z,28.05
2022-11-28T21:46:07.794Z,25.92
2022-11-28T21:48:39.066Z,27.17
2022-11-28T21:51:09.518Z,28.10
2022-11-28T21:53:40.355Z,29.00
2022-11-28T21:56:12.853Z,31.98
2022-11-28T21:58:43.412Z,32.72
2022-11-28T22:01:15.624Z,35.55
2022-11-28T22:03:46.353Z,34.72
2022-11-28T22:06:23.704Z,33.35
2022-11-28T22:08:54.873Z,33.28
2022-11-28T22:11:25.907Z,32.83
2022-11-28T22:13:56.071Z,35.28
2022-11-28T22:16:29.996Z,36.50
2022-11-28T22:19:02.790Z,36.10
2022-11-28T22:24:26.428Z,32.92
2022-11-28T22:26:58.262Z,31.60
2022-11-28T22:29:29.381Z,31.23
2022-11-28T22:32:00.631Z,31.65
2022-11-28T22:34:34.553Z,167.50
2022-11-28T22:37:07.462Z,416.73
2022-11-28T22:39:40.431Z,72.35
2022-11-28T22:42:11.934Z,37.50
2022-11-28T22:44:42.577Z,35.08
2022-11-28T22:47:13.042Z,31.38
2022-11-28T22:49:44.217Z,32.78
2022-11-28T22:52:15.849Z,34.83
2022-11-28T22:54:46.342Z,31.90
2022-11-28T22:57:16.998Z,36.63
2022-11-28T22:59:47.519Z,34.75
2022-11-28T23:02:18.177Z,34.58
2022-11-28T23:04:49.253Z,33.65
2022-11-28T23:07:19.830Z,33.17
2022-11-28T23:09:52.975Z,35.60
2022-11-28T23:12:23.463Z,36.88
2022-11-28T23:14:53.630Z,37.10
2022-11-28T23:17:24.562Z,34.70
2022-11-28T23:19:55.343Z,35.13
2022-11-28T23:22:26.174Z,57.15
2022-11-28T23:24:56.695Z,46.20
2022-11-28T23:27:27.636Z,66.88
2022-11-28T23:29:58.099Z,34.90
2022-11-28T23:32:29.457Z,54.83
2022-11-28T23:35:01.599Z,53.95
2022-11-28T23:37:32.137Z,37.30
2022-11-28T23:40:02.296Z,38.42
2022-11-28T23:42:32.757Z,37.47
2022-11-28T23:45:03.492Z,37.60
2022-11-28T23:47:34.103Z,36.90
2022-11-28T23:50:04.233Z,43.45
2022-11-28T23:52:34.398Z,34.38
2022-11-28T23:55:05.291Z,34.38
2022-11-28T23:57:35.506Z,34.80
